sensor_id;sensor_type;location;lat;lon;timestamp;P1;durP1;ratioP1;P2;durP2;ratioP2
48375;SDS011;34178;50.904;11.560;2023-08-31T00:01:48;3.60;;;1.60;;
48375;SDS011;34178;50.904;11.560;2023-08-31T00:04:14;3.47;;;1.60;;
48375;SDS011;34178;50.904;11.560;2023-08-31T00:06:43;3.88;;;1.50;;
48375;SDS011;34178;50.904;11.560;2023-08-31T00:09:13;6.35;;;1.58;;
48375;SDS011;34178;50.904;11.560;2023-08-31T00:11:39;3.47;;;1.70;;
48375;SDS011;34178;50.904;11.560;2023-08-31T00:14:05;4.07;;;1.50;;
48375;SDS011;34178;50.904;11.560;2023-08-31T00:16:31;4.13;;;1.50;;
48375;SDS011;34178;50.904;11.560;2023-08-31T00:18:58;3.70;;;1.45;;
48375;SDS011;34178;50.904;11.560;2023-08-31T00:21:24;3.97;;;1.60;;
48375;SDS011;34178;50.904;11.560;2023-08-31T00:23:50;4.88;;;1.60;;
48375;SDS011;34178;50.904;11.560;2023-08-31T00:26:16;5.38;;;1.80;;
48375;SDS011;34178;50.904;11.560;2023-08-31T00:28:41;6.25;;;1.80;;
48375;SDS011;34178;50.904;11.560;2023-08-31T00:31:09;4.80;;;1.73;;
48375;SDS011;34178;50.904;11.560;2023-08-31T00:33:35;4.13;;;1.77;;
48375;SDS011;34178;50.904;11.560;2023-08-31T00:36:02;3.40;;;1.65;;
48375;SDS011;34178;50.904;11.560;2023-08-31T00:38:29;6.65;;;2.00;;
48375;SDS011;34178;50.904;11.560;2023-08-31T00:40:55;6.15;;;1.67;;
48375;SDS011;34178;50.904;11.560;2023-08-31T00:43:21;4.03;;;1.50;;
48375;SDS011;34178;50.904;11.560;2023-08-31T00:45:48;3.83;;;1.90;;
48375;SDS011;34178;50.904;11.560;2023-08-31T00:48:15;4.05;;;1.70;;
48375;SDS011;34178;50.904;11.560;2023-08-31T00:50:48;3.85;;;1.92;;
48375;SDS011;34178;50.904;11.560;2023-08-31T00:53:14;3.33;;;1.55;;
48375;SDS011;34178;50.904;11.560;2023-08-31T00:55:40;4.00;;;1.77;;
48375;SDS011;34178;50.904;11.560;2023-08-31T00:58:07;4.28;;;1.90;;
48375;SDS011;34178;50.904;11.560;2023-08-31T01:08:57;5.20;;;1.95;;
48375;SDS011;34178;50.904;11.560;2023-08-31T01:11:40;5.53;;;2.13;;
48375;SDS011;34178;50.904;11.560;2023-08-31T01:14:38;6.28;;;2.05;;
48375;SDS011;34178;50.904;11.560;2023-08-31T01:17:14;5.57;;;2.00;;
48375;SDS011;34178;50.904;11.560;2023-08-31T01:19:48;4.65;;;1.73;;
48375;SDS011;34178;50.904;11.560;2023-08-31T01:24:52;5.80;;;1.90;;
48375;SDS011;34178;50.904;11.560;2023-08-31T01:27:19;4.90;;;1.92;;
48375;SDS011;34178;50.904;11.560;2023-08-31T01:29:45;4.25;;;2.13;;
48375;SDS011;34178;50.904;11.560;2023-08-31T01:32:11;6.82;;;2.55;;
48375;SDS011;34178;50.904;11.560;2023-08-31T01:34:37;4.68;;;2.00;;
48375;SDS011;34178;50.904;11.560;2023-08-31T01:37:04;4.45;;;2.30;;
48375;SDS011;34178;50.904;11.560;2023-08-31T01:39:39;4.63;;;1.92;;
48375;SDS011;34178;50.904;11.560;2023-08-31T01:42:11;3.65;;;1.67;;
48375;SDS011;34178;50.904;11.560;2023-08-31T01:44:39;5.07;;;2.00;;
48375;SDS011;34178;50.904;11.560;2023-08-31T01:47:05;3.17;;;1.73;;
48375;SDS011;34178;50.904;11.560;2023-08-31T01:49:35;5.15;;;2.47;;
48375;SDS011;34178;50.904;11.560;2023-08-31T01:52:02;3.90;;;1.70;;
48375;SDS011;34178;50.904;11.560;2023-08-31T01:54:27;4.22;;;1.80;;
48375;SDS011;34178;50.904;11.560;2023-08-31T01:56:53;3.85;;;2.00;;
48375;SDS011;34178;50.904;11.560;2023-08-31T01:59:19;4.82;;;2.30;;
48375;SDS011;34178;50.904;11.560;2023-08-31T02:01:45;4.63;;;1.77;;
48375;SDS011;34178;50.904;11.560;2023-08-31T02:04:10;4.65;;;2.30;;
48375;SDS011;34178;50.904;11.560;2023-08-31T02:06:36;3.95;;;2.05;;
48375;SDS011;34178;50.904;11.560;2023-08-31T02:09:02;12.18;;;3.70;;
48375;SDS011;34178;50.904;11.560;2023-08-31T02:11:27;4.40;;;2.05;;
48375;SDS011;34178;50.904;11.560;2023-08-31T02:13:53;4.00;;;2.00;;
48375;SDS011;34178;50.904;11.560;2023-08-31T02:16:19;5.68;;;2.45;;
48375;SDS011;34178;50.904;11.560;2023-08-31T02:18:44;5.82;;;2.80;;
48375;SDS011;34178;50.904;11.560;2023-08-31T02:21:10;5.43;;;2.50;;
48375;SDS011;34178;50.904;11.560;2023-08-31T02:23:36;6.40;;;2.70;;
48375;SDS011;34178;50.904;11.560;2023-08-31T02:26:01;4.15;;;2.10;;
48375;SDS011;34178;50.904;11.560;2023-08-31T02:28:27;4.80;;;2.50;;
48375;SDS011;34178;50.904;11.560;2023-08-31T02:31:00;4.55;;;2.28;;
48375;SDS011;34178;50.904;11.560;2023-08-31T02:33:27;6.28;;;2.60;;
48375;SDS011;34178;50.904;11.560;2023-08-31T02:35:56;5.80;;;2.55;;
48375;SDS011;34178;50.904;11.560;2023-08-31T02:38:21;5.63;;;2.50;;
48375;SDS011;34178;50.904;11.560;2023-08-31T02:40:48;5.13;;;2.40;;
48375;SDS011;34178;50.904;11.560;2023-08-31T02:43:14;5.60;;;2.40;;
48375;SDS011;34178;50.904;11.560;2023-08-31T02:45:40;5.05;;;2.60;;
48375;SDS011;34178;50.904;11.560;2023-08-31T02:48:09;6.68;;;2.60;;
48375;SDS011;34178;50.904;11.560;2023-08-31T02:50:35;6.28;;;2.67;;
48375;SDS011;34178;50.904;11.560;2023-08-31T02:53:01;5.43;;;2.83;;
48375;SDS011;34178;50.904;11.560;2023-08-31T02:55:27;6.00;;;2.90;;
48375;SDS011;34178;50.904;11.560;2023-08-31T02:57:53;5.25;;;2.47;;
48375;SDS011;34178;50.904;11.560;2023-08-31T03:00:19;6.10;;;2.20;;
48375;SDS011;34178;50.904;11.560;2023-08-31T03:02:48;5.20;;;2.75;;
48375;SDS011;34178;50.904;11.560;2023-08-31T03:05:17;4.57;;;2.70;;
48375;SDS011;34178;50.904;11.560;2023-08-31T03:07:43;5.47;;;3.13;;
48375;SDS011;34178;50.904;11.560;2023-08-31T03:10:09;5.45;;;3.03;;
48375;SDS011;34178;50.904;11.560;2023-08-31T03:12:35;5.68;;;2.65;;
48375;SDS011;34178;50.904;11.560;2023-08-31T03:15:01;5.22;;;2.65;;
48375;SDS011;34178;50.904;11.560;2023-08-31T03:17:27;6.60;;;3.10;;
48375;SDS011;34178;50.904;11.560;2023-08-31T03:19:53;5.10;;;3.00;;
48375;SDS011;34178;50.904;11.560;2023-08-31T03:22:18;6.20;;;3.35;;
48375;SDS011;34178;50.904;11.560;2023-08-31T03:24:44;6.55;;;3.50;;
48375;SDS011;34178;50.904;11.560;2023-08-31T03:27:10;6.20;;;3.65;;
48375;SDS011;34178;50.904;11.560;2023-08-31T03:29:36;6.72;;;3.40;;
48375;SDS011;34178;50.904;11.560;2023-08-31T03:32:01;6.97;;;3.50;;
48375;SDS011;34178;50.904;11.560;2023-08-31T03:34:30;7.70;;;3.70;;
48375;SDS011;34178;50.904;11.560;2023-08-31T03:36:59;7.40;;;3.57;;
48375;SDS011;34178;50.904;11.560;2023-08-31T03:39:25;9.43;;;3.90;;
48375;SDS011;34178;50.904;11.560;2023-08-31T03:41:51;7.18;;;4.13;;
48375;SDS011;34178;50.904;11.560;2023-08-31T03:44:17;6.95;;;3.38;;
48375;SDS011;34178;50.904;11.560;2023-08-31T03:46:43;6.50;;;3.22;;
48375;SDS011;34178;50.904;11.560;2023-08-31T03:49:08;6.45;;;3.10;;
48375;SDS011;34178;50.904;11.560;2023-08-31T03:51:34;6.80;;;3.63;;
48375;SDS011;34178;50.904;11.560;2023-08-31T03:54:00;8.23;;;3.20;;
48375;SDS011;34178;50.904;11.560;2023-08-31T03:56:27;7.93;;;3.53;;
48375;SDS011;34178;50.904;11.560;2023-08-31T03:58:53;6.60;;;3.65;;
48375;SDS011;34178;50.904;11.560;2023-08-31T04:01:19;7.63;;;3.85;;
48375;SDS011;34178;50.904;11.560;2023-08-31T04:03:45;13.80;;;3.92;;
48375;SDS011;34178;50.904;11.560;2023-08-31T04:06:10;8.48;;;3.47;;
48375;SDS011;34178;50.904;11.560;2023-08-31T04:08:36;8.05;;;3.28;;
48375;SDS011;34178;50.904;11.560;2023-08-31T04:11:02;6.88;;;3.72;;
48375;SDS011;34178;50.904;11.560;2023-08-31T04:13:28;5.95;;;3.20;;
48375;SDS011;34178;50.904;11.560;2023-08-31T04:15:54;6.03;;;3.45;;
48375;SDS011;34178;50.904;11.560;2023-08-31T04:18:20;5.82;;;3.47;;
48375;SDS011;34178;50.904;11.560;2023-08-31T04:20:49;10.95;;;3.67;;
48375;SDS011;34178;50.904;11.560;2023-08-31T04:23:16;6.72;;;3.45;;
48375;SDS011;34178;50.904;11.560;2023-08-31T04:25:43;7.55;;;3.28;;
48375;SDS011;34178;50.904;11.560;2023-08-31T04:28:08;6.95;;;3.85;;
48375;SDS011;34178;50.904;11.560;2023-08-31T04:30:34;7.75;;;3.60;;
48375;SDS011;34178;50.904;11.560;2023-08-31T04:33:00;7.35;;;3.42;;
48375;SDS011;34178;50.904;11.560;2023-08-31T04:35:25;5.50;;;3.47;;
48375;SDS011;34178;50.904;11.560;2023-08-31T04:37:52;7.18;;;3.60;;
48375;SDS011;34178;50.904;11.560;2023-08-31T04:40:17;6.43;;;3.20;;
48375;SDS011;34178;50.904;11.560;2023-08-31T04:42:43;12.05;;;3.70;;
48375;SDS011;34178;50.904;11.560;2023-08-31T04:45:09;6.30;;;3.40;;
48375;SDS011;34178;50.904;11.560;2023-08-31T04:47:36;9.63;;;3.33;;
48375;SDS011;34178;50.904;11.560;2023-08-31T04:50:02;6.60;;;3.70;;
48375;SDS011;34178;50.904;11.560;2023-08-31T04:52:28;9.65;;;3.70;;
48375;SDS011;34178;50.904;11.560;2023-08-31T04:54:54;11.07;;;4.13;;
48375;SDS011;34178;50.904;11.560;2023-08-31T04:57:19;7.63;;;4.47;;
48375;SDS011;34178;50.904;11.560;2023-08-31T04:59:45;8.30;;;4.03;;
48375;SDS011;34178;50.904;11.560;2023-08-31T05:02:11;9.82;;;4.30;;
48375;SDS011;34178;50.904;11.560;2023-08-31T05:04:37;7.80;;;3.80;;
48375;SDS011;34178;50.904;11.560;2023-08-31T05:07:02;7.45;;;4.18;;
48375;SDS011;34178;50.904;11.560;2023-08-31T05:09:28;9.00;;;3.90;;
48375;SDS011;34178;50.904;11.560;2023-08-31T05:11:57;6.47;;;4.03;;
48375;SDS011;34178;50.904;11.560;2023-08-31T05:14:23;9.10;;;4.30;;
48375;SDS011;34178;50.904;11.560;2023-08-31T05:16:50;7.95;;;4.28;;
48375;SDS011;34178;50.904;11.560;2023-08-31T05:19:15;7.75;;;4.18;;
48375;SDS011;34178;50.904;11.560;2023-08-31T05:21:41;10.60;;;5.43;;
48375;SDS011;34178;50.904;11.560;2023-08-31T05:24:07;8.75;;;4.47;;
48375;SDS011;34178;50.904;11.560;2023-08-31T05:26:33;10.70;;;4.95;;
48375;SDS011;34178;50.904;11.560;2023-08-31T05:28:58;8.15;;;5.47;;
48375;SDS011;34178;50.904;11.560;2023-08-31T05:31:24;9.20;;;4.97;;
48375;SDS011;34178;50.904;11.560;2023-08-31T05:33:50;9.40;;;5.38;;
48375;SDS011;34178;50.904;11.560;2023-08-31T05:36:15;8.85;;;5.05;;
48375;SDS011;34178;50.904;11.560;2023-08-31T05:38:41;9.82;;;5.03;;
48375;SDS011;34178;50.904;11.560;2023-08-31T05:41:07;9.43;;;5.50;;
48375;SDS011;34178;50.904;11.560;2023-08-31T05:43:34;10.60;;;5.47;;
48375;SDS011;34178;50.904;11.560;2023-08-31T05:46:01;11.25;;;6.25;;
48375;SDS011;34178;50.904;11.560;2023-08-31T05:48:27;9.35;;;5.35;;
48375;SDS011;34178;50.904;11.560;2023-08-31T05:50:53;12.32;;;6.22;;
48375;SDS011;34178;50.904;11.560;2023-08-31T05:53:19;12.38;;;5.93;;
48375;SDS011;34178;50.904;11.560;2023-08-31T05:55:45;10.98;;;6.07;;
48375;SDS011;34178;50.904;11.560;2023-08-31T05:58:10;10.80;;;6.65;;
48375;SDS011;34178;50.904;11.560;2023-08-31T06:00:36;11.57;;;5.85;;
48375;SDS011;34178;50.904;11.560;2023-08-31T06:03:03;9.05;;;5.85;;
48375;SDS011;34178;50.904;11.560;2023-08-31T06:05:30;10.77;;;5.53;;
48375;SDS011;34178;50.904;11.560;2023-08-31T06:07:57;9.40;;;6.28;;
48375;SDS011;34178;50.904;11.560;2023-08-31T06:10:23;11.02;;;6.47;;
48375;SDS011;34178;50.904;11.560;2023-08-31T06:12:49;12.13;;;7.07;;
48375;SDS011;34178;50.904;11.560;2023-08-31T06:15:16;11.57;;;6.63;;
48375;SDS011;34178;50.904;11.560;2023-08-31T06:17:42;9.55;;;6.13;;
48375;SDS011;34178;50.904;11.560;2023-08-31T06:20:08;10.07;;;5.90;;
48375;SDS011;34178;50.904;11.560;2023-08-31T06:22:34;10.07;;;5.35;;
48375;SDS011;34178;50.904;11.560;2023-08-31T06:25:00;8.18;;;4.97;;
48375;SDS011;34178;50.904;11.560;2023-08-31T06:27:27;8.48;;;5.70;;
48375;SDS011;34178;50.904;11.560;2023-08-31T06:29:53;8.98;;;5.57;;
48375;SDS011;34178;50.904;11.560;2023-08-31T06:32:19;7.97;;;5.05;;
48375;SDS011;34178;50.904;11.560;2023-08-31T06:34:45;7.63;;;5.03;;
48375;SDS011;34178;50.904;11.560;2023-08-31T06:37:11;7.30;;;4.85;;
48375;SDS011;34178;50.904;11.560;2023-08-31T06:39:37;11.32;;;4.97;;
48375;SDS011;34178;50.904;11.560;2023-08-31T06:42:03;12.30;;;5.72;;
48375;SDS011;34178;50.904;11.560;2023-08-31T06:44:29;8.27;;;4.80;;
48375;SDS011;34178;50.904;11.560;2023-08-31T06:46:55;7.20;;;5.00;;
48375;SDS011;34178;50.904;11.560;2023-08-31T06:49:21;9.75;;;5.28;;
48375;SDS011;34178;50.904;11.560;2023-08-31T06:51:48;9.52;;;5.50;;
48375;SDS011;34178;50.904;11.560;2023-08-31T06:54:14;10.20;;;4.75;;
48375;SDS011;34178;50.904;11.560;2023-08-31T06:56:39;7.82;;;4.53;;
48375;SDS011;34178;50.904;11.560;2023-08-31T06:59:06;7.97;;;4.35;;
48375;SDS011;34178;50.904;11.560;2023-08-31T07:01:31;11.00;;;4.03;;
48375;SDS011;34178;50.904;11.560;2023-08-31T07:04:00;7.75;;;4.18;;
48375;SDS011;34178;50.904;11.560;2023-08-31T07:06:26;8.57;;;4.43;;
48375;SDS011;34178;50.904;11.560;2023-08-31T07:08:52;7.80;;;4.43;;
48375;SDS011;34178;50.904;11.560;2023-08-31T07:11:18;9.75;;;4.70;;
48375;SDS011;34178;50.904;11.560;2023-08-31T07:13:43;7.90;;;3.80;;
48375;SDS011;34178;50.904;11.560;2023-08-31T07:16:09;8.98;;;4.10;;
48375;SDS011;34178;50.904;11.560;2023-08-31T07:18:35;11.07;;;4.82;;
48375;SDS011;34178;50.904;11.560;2023-08-31T07:21:02;6.78;;;4.00;;
48375;SDS011;34178;50.904;11.560;2023-08-31T07:23:29;12.02;;;4.45;;
48375;SDS011;34178;50.904;11.560;2023-08-31T07:25:58;8.25;;;4.32;;
48375;SDS011;34178;50.904;11.560;2023-08-31T07:28:25;10.23;;;4.22;;
48375;SDS011;34178;50.904;11.560;2023-08-31T07:31:03;10.52;;;3.65;;
48375;SDS011;34178;50.904;11.560;2023-08-31T07:33:32;6.45;;;3.42;;
48375;SDS011;34178;50.904;11.560;2023-08-31T07:36:02;8.20;;;3.70;;
48375;SDS011;34178;50.904;11.560;2023-08-31T07:38:29;10.77;;;3.70;;
48375;SDS011;34178;50.904;11.560;2023-08-31T07:40:56;8.93;;;3.50;;
48375;SDS011;34178;50.904;11.560;2023-08-31T07:43:21;12.85;;;3.63;;
48375;SDS011;34178;50.904;11.560;2023-08-31T07:45:47;5.18;;;2.83;;
48375;SDS011;34178;50.904;11.560;2023-08-31T07:48:14;7.40;;;3.20;;
48375;SDS011;34178;50.904;11.560;2023-08-31T07:50:40;7.00;;;2.92;;
48375;SDS011;34178;50.904;11.560;2023-08-31T07:53:07;8.18;;;3.13;;
48375;SDS011;34178;50.904;11.560;2023-08-31T07:55:33;7.70;;;2.92;;
48375;SDS011;34178;50.904;11.560;2023-08-31T07:57:59;6.03;;;2.90;;
48375;SDS011;34178;50.904;11.560;2023-08-31T08:00:26;7.30;;;2.83;;
48375;SDS011;34178;50.904;11.560;2023-08-31T08:02:51;5.97;;;2.88;;
48375;SDS011;34178;50.904;11.560;2023-08-31T08:05:17;6.72;;;3.08;;
48375;SDS011;34178;50.904;11.560;2023-08-31T08:07:43;7.68;;;2.95;;
48375;SDS011;34178;50.904;11.560;2023-08-31T08:10:09;8.65;;;3.40;;
48375;SDS011;34178;50.904;11.560;2023-08-31T08:12:36;8.38;;;3.10;;
48375;SDS011;34178;50.904;11.560;2023-08-31T08:15:04;6.57;;;3.00;;
48375;SDS011;34178;50.904;11.560;2023-08-31T08:17:31;6.18;;;3.08;;
48375;SDS011;34178;50.904;11.560;2023-08-31T08:19:57;8.00;;;3.95;;
48375;SDS011;34178;50.904;11.560;2023-08-31T08:22:24;6.75;;;3.50;;
48375;SDS011;34178;50.904;11.560;2023-08-31T08:24:50;8.27;;;2.92;;
48375;SDS011;34178;50.904;11.560;2023-08-31T08:27:15;7.65;;;2.92;;
48375;SDS011;34178;50.904;11.560;2023-08-31T08:29:43;5.15;;;2.72;;
48375;SDS011;34178;50.904;11.560;2023-08-31T08:32:08;7.35;;;2.22;;
48375;SDS011;34178;50.904;11.560;2023-08-31T08:34:34;9.27;;;3.17;;
48375;SDS011;34178;50.904;11.560;2023-08-31T08:37:00;5.18;;;2.78;;
48375;SDS011;34178;50.904;11.560;2023-08-31T08:39:26;5.93;;;2.58;;
48375;SDS011;34178;50.904;11.560;2023-08-31T08:41:52;6.78;;;2.80;;
48375;SDS011;34178;50.904;11.560;2023-08-31T08:44:20;6.72;;;2.60;;
48375;SDS011;34178;50.904;11.560;2023-08-31T08:46:50;7.43;;;2.40;;
48375;SDS011;34178;50.904;11.560;2023-08-31T08:49:17;7.40;;;2.45;;
48375;SDS011;34178;50.904;11.560;2023-08-31T08:51:44;6.00;;;2.20;;
48375;SDS011;34178;50.904;11.560;2023-08-31T08:54:13;6.63;;;2.60;;
48375;SDS011;34178;50.904;11.560;2023-08-31T08:56:39;5.57;;;2.38;;
48375;SDS011;34178;50.904;11.560;2023-08-31T08:59:05;6.15;;;2.47;;
48375;SDS011;34178;50.904;11.560;2023-08-31T09:01:32;5.15;;;2.30;;
48375;SDS011;34178;50.904;11.560;2023-08-31T09:04:00;11.00;;;2.85;;
48375;SDS011;34178;50.904;11.560;2023-08-31T09:06:27;5.85;;;2.38;;
48375;SDS011;34178;50.904;11.560;2023-08-31T09:08:56;7.38;;;2.45;;
48375;SDS011;34178;50.904;11.560;2023-08-31T09:11:22;6.68;;;2.00;;
48375;SDS011;34178;50.904;11.560;2023-08-31T09:13:48;5.03;;;2.30;;
48375;SDS011;34178;50.904;11.560;2023-08-31T09:16:25;7.28;;;2.53;;
48375;SDS011;34178;50.904;11.560;2023-08-31T09:18:55;6.40;;;1.98;;
48375;SDS011;34178;50.904;11.560;2023-08-31T09:21:21;6.65;;;2.20;;
48375;SDS011;34178;50.904;11.560;2023-08-31T09:23:58;5.30;;;2.03;;
48375;SDS011;34178;50.904;11.560;2023-08-31T09:26:24;5.10;;;1.92;;
48375;SDS011;34178;50.904;11.560;2023-08-31T09:28:50;4.38;;;1.92;;
48375;SDS011;34178;50.904;11.560;2023-08-31T09:31:16;5.38;;;1.80;;
48375;SDS011;34178;50.904;11.560;2023-08-31T09:33:51;5.90;;;2.15;;
48375;SDS011;34178;50.904;11.560;2023-08-31T09:36:17;3.70;;;1.70;;
48375;SDS011;34178;50.904;11.560;2023-08-31T09:38:45;7.15;;;2.05;;
48375;SDS011;34178;50.904;11.560;2023-08-31T09:41:11;4.20;;;1.48;;
48375;SDS011;34178;50.904;11.560;2023-08-31T09:43:37;2.72;;;1.13;;
48375;SDS011;34178;50.904;11.560;2023-08-31T09:46:04;4.32;;;1.52;;
48375;SDS011;34178;50.904;11.560;2023-08-31T09:48:30;4.10;;;1.48;;
48375;SDS011;34178;50.904;11.560;2023-08-31T09:50:56;3.20;;;1.20;;
48375;SDS011;34178;50.904;11.560;2023-08-31T09:53:26;4.28;;;1.60;;
48375;SDS011;34178;50.904;11.560;2023-08-31T09:55:54;2.25;;;1.02;;
48375;SDS011;34178;50.904;11.560;2023-08-31T09:58:22;5.15;;;1.30;;
48375;SDS011;34178;50.904;11.560;2023-08-31T10:00:49;3.60;;;1.33;;
48375;SDS011;34178;50.904;11.560;2023-08-31T10:03:15;2.75;;;1.33;;
48375;SDS011;34178;50.904;11.560;2023-08-31T10:05:45;3.83;;;1.38;;
48375;SDS011;34178;50.904;11.560;2023-08-31T10:08:15;5.78;;;1.55;;
48375;SDS011;34178;50.904;11.560;2023-08-31T10:10:41;6.43;;;1.65;;
48375;SDS011;34178;50.904;11.560;2023-08-31T10:13:07;3.55;;;1.20;;
48375;SDS011;34178;50.904;11.560;2023-08-31T10:15:34;6.15;;;1.70;;
48375;SDS011;34178;50.904;11.560;2023-08-31T10:18:01;3.40;;;1.40;;
48375;SDS011;34178;50.904;11.560;2023-08-31T10:20:28;5.20;;;1.75;;
48375;SDS011;34178;50.904;11.560;2023-08-31T10:22:59;5.65;;;1.50;;
48375;SDS011;34178;50.904;11.560;2023-08-31T10:28:25;2.70;;;1.27;;
48375;SDS011;34178;50.904;11.560;2023-08-31T10:31:04;6.40;;;1.70;;
48375;SDS011;34178;50.904;11.560;2023-08-31T10:33:34;4.72;;;1.40;;
48375;SDS011;34178;50.904;11.560;2023-08-31T10:36:17;4.20;;;1.73;;
48375;SDS011;34178;50.904;11.560;2023-08-31T10:38:47;4.35;;;1.45;;
48375;SDS011;34178;50.904;11.560;2023-08-31T10:41:22;5.43;;;1.48;;
48375;SDS011;34178;50.904;11.560;2023-08-31T10:43:58;3.63;;;1.27;;
48375;SDS011;34178;50.904;11.560;2023-08-31T10:46:28;2.30;;;1.20;;
48375;SDS011;34178;50.904;11.560;2023-08-31T10:51:24;3.80;;;1.17;;
48375;SDS011;34178;50.904;11.560;2023-08-31T10:53:50;4.18;;;1.35;;
48375;SDS011;34178;50.904;11.560;2023-08-31T10:56:17;6.05;;;1.13;;
48375;SDS011;34178;50.904;11.560;2023-08-31T10:58:55;4.07;;;1.50;;
48375;SDS011;34178;50.904;11.560;2023-08-31T11:04:16;3.45;;;1.40;;
48375;SDS011;34178;50.904;11.560;2023-08-31T11:06:42;3.83;;;1.15;;
48375;SDS011;34178;50.904;11.560;2023-08-31T11:09:17;5.00;;;1.45;;
48375;SDS011;34178;50.904;11.560;2023-08-31T11:11:46;4.25;;;1.27;;
48375;SDS011;34178;50.904;11.560;2023-08-31T11:14:15;4.05;;;1.30;;
48375;SDS011;34178;50.904;11.560;2023-08-31T11:16:41;3.55;;;1.05;;
48375;SDS011;34178;50.904;11.560;2023-08-31T11:19:08;4.90;;;1.35;;
48375;SDS011;34178;50.904;11.560;2023-08-31T11:21:35;2.55;;;0.95;;
48375;SDS011;34178;50.904;11.560;2023-08-31T11:24:02;2.35;;;0.90;;
48375;SDS011;34178;50.904;11.560;2023-08-31T11:26:29;3.45;;;1.20;;
48375;SDS011;34178;50.904;11.560;2023-08-31T11:28:57;2.47;;;1.20;;
48375;SDS011;34178;50.904;11.560;2023-08-31T11:31:26;3.80;;;1.10;;
48375;SDS011;34178;50.904;11.560;2023-08-31T11:33:54;3.65;;;1.35;;
48375;SDS011;34178;50.904;11.560;2023-08-31T11:36:21;4.35;;;1.33;;
48375;SDS011;34178;50.904;11.560;2023-08-31T11:38:47;4.82;;;1.50;;
48375;SDS011;34178;50.904;11.560;2023-08-31T11:41:14;4.13;;;1.50;;
48375;SDS011;34178;50.904;11.560;2023-08-31T11:43:39;3.17;;;1.10;;
48375;SDS011;34178;50.904;11.560;2023-08-31T11:46:06;4.32;;;1.67;;
48375;SDS011;34178;50.904;11.560;2023-08-31T11:48:32;5.55;;;1.27;;
48375;SDS011;34178;50.904;11.560;2023-08-31T11:50:59;5.28;;;1.55;;
48375;SDS011;34178;50.904;11.560;2023-08-31T11:53:25;2.55;;;1.23;;
48375;SDS011;34178;50.904;11.560;2023-08-31T11:55:52;2.53;;;1.10;;
48375;SDS011;34178;50.904;11.560;2023-08-31T11:58:18;4.85;;;1.45;;
48375;SDS011;34178;50.904;11.560;2023-08-31T12:00:45;4.32;;;1.40;;
48375;SDS011;34178;50.904;11.560;2023-08-31T12:03:19;3.63;;;1.40;;
48375;SDS011;34178;50.904;11.560;2023-08-31T12:05:45;4.40;;;1.25;;
48375;SDS011;34178;50.904;11.560;2023-08-31T12:08:13;2.25;;;1.10;;
48375;SDS011;34178;50.904;11.560;2023-08-31T12:10:39;5.65;;;1.10;;
48375;SDS011;34178;50.904;11.560;2023-08-31T12:13:09;6.22;;;1.45;;
48375;SDS011;34178;50.904;11.560;2023-08-31T12:18:10;4.57;;;1.30;;
48375;SDS011;34178;50.904;11.560;2023-08-31T12:20:43;3.28;;;1.00;;
48375;SDS011;34178;50.904;11.560;2023-08-31T12:23:10;3.97;;;0.93;;
48375;SDS011;34178;50.904;11.560;2023-08-31T12:25:35;2.20;;;1.00;;
48375;SDS011;34178;50.904;11.560;2023-08-31T12:28:01;4.28;;;1.15;;
48375;SDS011;34178;50.904;11.560;2023-08-31T12:30:30;2.85;;;1.00;;
48375;SDS011;34178;50.904;11.560;2023-08-31T12:32:56;3.50;;;1.20;;
48375;SDS011;34178;50.904;11.560;2023-08-31T12:35:21;3.33;;;1.15;;
48375;SDS011;34178;50.904;11.560;2023-08-31T12:37:47;2.72;;;1.10;;
48375;SDS011;34178;50.904;11.560;2023-08-31T12:40:13;2.63;;;1.20;;
48375;SDS011;34178;50.904;11.560;2023-08-31T12:42:40;5.05;;;1.20;;
48375;SDS011;34178;50.904;11.560;2023-08-31T12:45:06;5.43;;;1.23;;
48375;SDS011;34178;50.904;11.560;2023-08-31T12:47:34;3.78;;;1.30;;
48375;SDS011;34178;50.904;11.560;2023-08-31T12:49:59;5.63;;;1.40;;
48375;SDS011;34178;50.904;11.560;2023-08-31T12:52:27;4.05;;;1.20;;
48375;SDS011;34178;50.904;11.560;2023-08-31T12:54:53;3.55;;;1.15;;
48375;SDS011;34178;50.904;11.560;2023-08-31T12:57:18;2.75;;;1.00;;
48375;SDS011;34178;50.904;11.560;2023-08-31T12:59:44;1.98;;;0.95;;
48375;SDS011;34178;50.904;11.560;2023-08-31T13:02:10;4.63;;;1.10;;
48375;SDS011;34178;50.904;11.560;2023-08-31T13:04:36;2.70;;;1.08;;
48375;SDS011;34178;50.904;11.560;2023-08-31T13:07:02;2.25;;;0.98;;
48375;SDS011;34178;50.904;11.560;2023-08-31T13:09:29;4.35;;;1.50;;
48375;SDS011;34178;50.904;11.560;2023-08-31T13:11:55;3.90;;;1.30;;
48375;SDS011;34178;50.904;11.560;2023-08-31T13:14:20;3.97;;;1.23;;
48375;SDS011;34178;50.904;11.560;2023-08-31T13:16:46;3.63;;;0.98;;
48375;SDS011;34178;50.904;11.560;2023-08-31T13:19:11;3.30;;;1.27;;
48375;SDS011;34178;50.904;11.560;2023-08-31T13:21:37;3.55;;;1.17;;
48375;SDS011;34178;50.904;11.560;2023-08-31T13:24:03;3.72;;;1.20;;
48375;SDS011;34178;50.904;11.560;2023-08-31T13:26:29;3.92;;;1.20;;
48375;SDS011;34178;50.904;11.560;2023-08-31T13:28:54;3.35;;;1.00;;
48375;SDS011;34178;50.904;11.560;2023-08-31T13:31:20;4.78;;;1.33;;
48375;SDS011;34178;50.904;11.560;2023-08-31T13:33:46;3.00;;;1.20;;
48375;SDS011;34178;50.904;11.560;2023-08-31T13:36:12;4.57;;;1.10;;
48375;SDS011;34178;50.904;11.560;2023-08-31T13:38:37;4.38;;;1.05;;
48375;SDS011;34178;50.904;11.560;2023-08-31T13:41:03;3.22;;;1.05;;
48375;SDS011;34178;50.904;11.560;2023-08-31T13:43:29;4.00;;;1.50;;
48375;SDS011;34178;50.904;11.560;2023-08-31T13:45:55;3.95;;;1.30;;
48375;SDS011;34178;50.904;11.560;2023-08-31T13:48:20;2.92;;;1.15;;
48375;SDS011;34178;50.904;11.560;2023-08-31T13:50:47;2.30;;;1.08;;
48375;SDS011;34178;50.904;11.560;2023-08-31T13:53:13;3.92;;;1.10;;
48375;SDS011;34178;50.904;11.560;2023-08-31T13:55:39;3.70;;;1.10;;
48375;SDS011;34178;50.904;11.560;2023-08-31T13:58:05;3.58;;;1.20;;
48375;SDS011;34178;50.904;11.560;2023-08-31T14:00:32;3.42;;;1.20;;
48375;SDS011;34178;50.904;11.560;2023-08-31T14:02:58;3.90;;;1.40;;
48375;SDS011;34178;50.904;11.560;2023-08-31T14:05:27;3.90;;;1.25;;
48375;SDS011;34178;50.904;11.560;2023-08-31T14:07:57;4.13;;;1.10;;
48375;SDS011;34178;50.904;11.560;2023-08-31T14:10:26;4.00;;;1.20;;
48375;SDS011;34178;50.904;11.560;2023-08-31T14:12:52;3.83;;;1.20;;
48375;SDS011;34178;50.904;11.560;2023-08-31T14:15:18;3.55;;;1.30;;
48375;SDS011;34178;50.904;11.560;2023-08-31T14:17:44;4.15;;;1.30;;
48375;SDS011;34178;50.904;11.560;2023-08-31T14:20:10;5.28;;;1.20;;
48375;SDS011;34178;50.904;11.560;2023-08-31T14:22:36;4.95;;;1.25;;
48375;SDS011;34178;50.904;11.560;2023-08-31T14:25:02;3.95;;;1.17;;
48375;SDS011;34178;50.904;11.560;2023-08-31T14:27:28;3.65;;;0.98;;
48375;SDS011;34178;50.904;11.560;2023-08-31T14:29:56;5.20;;;1.08;;
48375;SDS011;34178;50.904;11.560;2023-08-31T14:32:22;4.70;;;1.58;;
48375;SDS011;34178;50.904;11.560;2023-08-31T14:34:48;3.45;;;1.20;;
48375;SDS011;34178;50.904;11.560;2023-08-31T14:37:14;5.82;;;1.60;;
48375;SDS011;34178;50.904;11.560;2023-08-31T14:39:40;3.55;;;1.48;;
48375;SDS011;34178;50.904;11.560;2023-08-31T14:42:06;2.75;;;1.20;;
48375;SDS011;34178;50.904;11.560;2023-08-31T14:44:31;3.58;;;1.27;;
48375;SDS011;34178;50.904;11.560;2023-08-31T14:46:58;3.53;;;1.30;;
48375;SDS011;34178;50.904;11.560;2023-08-31T14:49:23;4.55;;;1.00;;
48375;SDS011;34178;50.904;11.560;2023-08-31T14:51:52;2.50;;;1.10;;
48375;SDS011;34178;50.904;11.560;2023-08-31T14:54:18;3.30;;;1.27;;